sensor_id;sensor_type;location;lat;lon;timestamp;temperature;humidity
44037;DHT22;62488;-37.670;-63.532;2022-10-30T00:01:02;13.90;99.90
44037;DHT22;62488;-37.670;-63.532;2022-10-30T00:03:29;13.80;99.90
44037;DHT22;62488;-37.670;-63.532;2022-10-30T00:05:56;13.70;99.90
44037;DHT22;62488;-37.670;-63.532;2022-10-30T00:08:23;13.70;99.90
44037;DHT22;62488;-37.670;-63.532;2022-10-30T00:10:52;13.50;99.90
44037;DHT22;62488;-37.670;-63.532;2022-10-30T00:13:20;13.50;99.90
44037;DHT22;62488;-37.670;-63.532;2022-10-30T00:15:52;13.60;99.90
44037;DHT22;62488;-37.670;-63.532;2022-10-30T00:18:19;13.40;99.90
44037;DHT22;62488;-37.670;-63.532;2022-10-30T00:20:47;13.50;99.90
44037;DHT22;62488;-37.670;-63.532;2022-10-30T00:23:14;13.50;99.90
44037;DHT22;62488;-37.670;-63.532;2022-10-30T00:25:41;13.30;99.90
44037;DHT22;62488;-37.670;-63.532;2022-10-30T00:28:08;13.20;99.90
44037;DHT22;62488;-37.670;-63.532;2022-10-30T00:30:36;13.00;99.90
44037;DHT22;62488;-37.670;-63.532;2022-10-30T00:33:03;12.70;99.90
44037;DHT22;62488;-37.670;-63.532;2022-10-30T00:35:31;12.60;99.90
44037;DHT22;62488;-37.670;-63.532;2022-10-30T00:37:59;12.30;99.90
44037;DHT22;62488;-37.670;-63.532;2022-10-30T00:40:26;12.20;99.90
44037;DHT22;62488;-37.670;-63.532;2022-10-30T00:42:53;12.00;99.90
44037;DHT22;62488;-37.670;-63.532;2022-10-30T00:45:20;11.90;99.90
44037;DHT22;62488;-37.670;-63.532;2022-10-30T00:48:00;11.90;99.90
44037;DHT22;62488;-37.670;-63.532;2022-10-30T00:50:34;11.80;99.90
44037;DHT22;62488;-37.670;-63.532;2022-10-30T00:53:12;11.70;99.90
44037;DHT22;62488;-37.670;-63.532;2022-10-30T00:55:45;11.60;99.90
44037;DHT22;62488;-37.670;-63.532;2022-10-30T00:58:16;11.60;99.90
44037;DHT22;62488;-37.670;-63.532;2022-10-30T01:00:48;11.60;99.90
44037;DHT22;62488;-37.670;-63.532;2022-10-30T01:03:17;11.50;99.90
44037;DHT22;62488;-37.670;-63.532;2022-10-30T01:05:47;11.50;99.90
44037;DHT22;62488;-37.670;-63.532;2022-10-30T01:08:15;11.50;99.90
44037;DHT22;62488;-37.670;-63.532;2022-10-30T01:10:42;11.40;99.90
44037;DHT22;62488;-37.670;-63.532;2022-10-30T01:13:09;11.40;99.90
44037;DHT22;62488;-37.670;-63.532;2022-10-30T01:15:41;11.40;99.90
44037;DHT22;62488;-37.670;-63.532;2022-10-30T01:18:29;11.40;99.90
44037;DHT22;62488;-37.670;-63.532;2022-10-30T01:21:45;11.40;99.90
44037;DHT22;62488;-37.670;-63.532;2022-10-30T01:29:47;11.30;99.90
44037;DHT22;62488;-37.670;-63.532;2022-10-30T01:32:40;11.40;99.90
44037;DHT22;62488;-37.670;-63.532;2022-10-30T01:38:54;11.20;99.90
44037;DHT22;62488;-37.670;-63.532;2022-10-30T01:41:02;11.20;99.90
44037;DHT22;62488;-37.670;-63.532;2022-10-30T01:43:30;11.20;99.90
44037;DHT22;62488;-37.670;-63.532;2022-10-30T01:46:14;11.20;99.90
44037;DHT22;62488;-37.670;-63.532;2022-10-30T01:49:20;11.10;99.90
44037;DHT22;62488;-37.670;-63.532;2022-10-30T01:58:19;10.90;99.90
44037;DHT22;62488;-37.670;-63.532;2022-10-30T02:00:26;10.90;99.90
44037;DHT22;62488;-37.670;-63.532;2022-10-30T02:02:54;11.00;99.90
44037;DHT22;62488;-37.670;-63.532;2022-10-30T02:05:44;11.00;99.90
44037;DHT22;62488;-37.670;-63.532;2022-10-30T02:08:13;11.00;99.90
44037;DHT22;62488;-37.670;-63.532;2022-10-30T02:10:42;11.10;99.90
44037;DHT22;62488;-37.670;-63.532;2022-10-30T02:13:10;11.00;99.90
44037;DHT22;62488;-37.670;-63.532;2022-10-30T02:15:37;11.00;99.90
44037;DHT22;62488;-37.670;-63.532;2022-10-30T02:18:05;11.00;99.90
44037;DHT22;62488;-37.670;-63.532;2022-10-30T02:20:32;11.10;99.90
44037;DHT22;62488;-37.670;-63.532;2022-10-30T02:23:00;11.10;99.90
44037;DHT22;62488;-37.670;-63.532;2022-10-30T02:25:27;11.20;99.90
44037;DHT22;62488;-37.670;-63.532;2022-10-30T02:27:54;11.20;99.90
44037;DHT22;62488;-37.670;-63.532;2022-10-30T02:30:21;11.20;99.90
44037;DHT22;62488;-37.670;-63.532;2022-10-30T02:32:48;11.10;99.90
44037;DHT22;62488;-37.670;-63.532;2022-10-30T02:35:15;11.10;99.90
44037;DHT22;62488;-37.670;-63.532;2022-10-30T02:37:42;11.00;99.90
44037;DHT22;62488;-37.670;-63.532;2022-10-30T02:40:10;11.20;99.90
44037;DHT22;62488;-37.670;-63.532;2022-10-30T02:42:37;11.00;99.90
44037;DHT22;62488;-37.670;-63.532;2022-10-30T02:45:04;11.00;99.90
44037;DHT22;62488;-37.670;-63.532;2022-10-30T02:47:32;11.00;99.90
44037;DHT22;62488;-37.670;-63.532;2022-10-30T02:49:59;10.90;99.90
44037;DHT22;62488;-37.670;-63.532;2022-10-30T02:52:26;10.90;99.90
44037;DHT22;62488;-37.670;-63.532;2022-10-30T02:54:53;10.80;99.90
44037;DHT22;62488;-37.670;-63.532;2022-10-30T02:57:20;10.90;99.90
44037;DHT22;62488;-37.670;-63.532;2022-10-30T02:59:47;10.80;99.90
44037;DHT22;62488;-37.670;-63.532;2022-10-30T03:02:14;10.80;99.90
44037;DHT22;62488;-37.670;-63.532;2022-10-30T03:04:41;10.80;99.90
44037;DHT22;62488;-37.670;-63.532;2022-10-30T03:07:08;10.80;99.90
44037;DHT22;62488;-37.670;-63.532;2022-10-30T03:09:35;10.80;99.90
44037;DHT22;62488;-37.670;-63.532;2022-10-30T03:12:02;10.80;99.90
44037;DHT22;62488;-37.670;-63.532;2022-10-30T03:14:29;10.90;99.90
44037;DHT22;62488;-37.670;-63.532;2022-10-30T03:16:56;10.90;99.90
44037;DHT22;62488;-37.670;-63.532;2022-10-30T03:19:23;10.80;99.90
44037;DHT22;62488;-37.670;-63.532;2022-10-30T03:21:50;10.80;99.90
44037;DHT22;62488;-37.670;-63.532;2022-10-30T03:24:18;10.80;99.90
44037;DHT22;62488;-37.670;-63.532;2022-10-30T03:26:46;10.70;99.90
44037;DHT22;62488;-37.670;-63.532;2022-10-30T03:29:13;10.60;99.90
44037;DHT22;62488;-37.670;-63.532;2022-10-30T03:31:43;10.60;99.90
44037;DHT22;62488;-37.670;-63.532;2022-10-30T03:34:10;10.60;99.90
44037;DHT22;62488;-37.670;-63.532;2022-10-30T03:36:37;10.60;99.90
44037;DHT22;62488;-37.670;-63.532;2022-10-30T03:39:04;10.60;99.90
44037;DHT22;62488;-37.670;-63.532;2022-10-30T03:41:32;10.50;99.90
44037;DHT22;62488;-37.670;-63.532;2022-10-30T03:44:02;10.50;99.90
44037;DHT22;62488;-37.670;-63.532;2022-10-30T03:46:30;10.30;99.90
44037;DHT22;62488;-37.670;-63.532;2022-10-30T03:48:59;10.30;99.90
44037;DHT22;62488;-37.670;-63.532;2022-10-30T03:51:26;10.20;99.90
44037;DHT22;62488;-37.670;-63.532;2022-10-30T03:53:53;10.10;99.90
44037;DHT22;62488;-37.670;-63.532;2022-10-30T03:56:20;10.10;99.90
44037;DHT22;62488;-37.670;-63.532;2022-10-30T03:58:47;10.10;99.90
44037;DHT22;62488;-37.670;-63.532;2022-10-30T04:01:14;10.10;99.90
44037;DHT22;62488;-37.670;-63.532;2022-10-30T04:03:41;10.10;99.90
44037;DHT22;62488;-37.670;-63.532;2022-10-30T04:06:09;10.00;99.90
44037;DHT22;62488;-37.670;-63.532;2022-10-30T04:08:36;10.00;99.90
44037;DHT22;62488;-37.670;-63.532;2022-10-30T04:11:03;9.90;99.90
44037;DHT22;62488;-37.670;-63.532;2022-10-30T04:13:30;9.90;99.90
44037;DHT22;62488;-37.670;-63.532;2022-10-30T04:15:57;9.90;99.90
44037;DHT22;62488;-37.670;-63.532;2022-10-30T04:18:24;9.90;99.90
44037;DHT22;62488;-37.670;-63.532;2022-10-30T04:20:51;9.90;99.90
44037;DHT22;62488;-37.670;-63.532;2022-10-30T04:23:19;9.90;99.90
44037;DHT22;62488;-37.670;-63.532;2022-10-30T04:25:47;9.90;99.90
44037;DHT22;62488;-37.670;-63.532;2022-10-30T04:28:14;9.80;99.90
44037;DHT22;62488;-37.670;-63.532;2022-10-30T04:30:41;9.80;99.90
44037;DHT22;62488;-37.670;-63.532;2022-10-30T04:33:12;9.80;99.90
44037;DHT22;62488;-37.670;-63.532;2022-10-30T04:35:40;9.90;99.90
44037;DHT22;62488;-37.670;-63.532;2022-10-30T04:38:09;9.80;99.90
44037;DHT22;62488;-37.670;-63.532;2022-10-30T04:40:40;9.80;99.90
44037;DHT22;62488;-37.670;-63.532;2022-10-30T04:43:09;9.80;99.90
44037;DHT22;62488;-37.670;-63.532;2022-10-30T04:45:37;9.70;99.90
44037;DHT22;62488;-37.670;-63.532;2022-10-30T04:48:12;9.60;99.90
44037;DHT22;62488;-37.670;-63.532;2022-10-30T04:50:40;9.60;99.90
44037;DHT22;62488;-37.670;-63.532;2022-10-30T04:53:17;9.50;99.90
44037;DHT22;62488;-37.670;-63.532;2022-10-30T04:55:44;9.40;99.90
44037;DHT22;62488;-37.670;-63.532;2022-10-30T04:58:12;9.40;99.90
44037;DHT22;62488;-37.670;-63.532;2022-10-30T05:00:39;9.40;99.90
44037;DHT22;62488;-37.670;-63.532;2022-10-30T05:03:07;9.30;99.90
44037;DHT22;62488;-37.670;-63.532;2022-10-30T05:05:35;9.20;99.90
44037;DHT22;62488;-37.670;-63.532;2022-10-30T05:08:02;9.10;99.90
44037;DHT22;62488;-37.670;-63.532;2022-10-30T05:10:31;9.00;99.90
44037;DHT22;62488;-37.670;-63.532;2022-10-30T05:12:58;9.00;99.90
44037;DHT22;62488;-37.670;-63.532;2022-10-30T05:15:25;8.90;99.90
44037;DHT22;62488;-37.670;-63.532;2022-10-30T05:17:52;8.90;99.90
44037;DHT22;62488;-37.670;-63.532;2022-10-30T05:20:20;8.80;99.90
44037;DHT22;62488;-37.670;-63.532;2022-10-30T05:22:57;8.80;99.90
44037;DHT22;62488;-37.670;-63.532;2022-10-30T05:25:24;8.80;99.90
44037;DHT22;62488;-37.670;-63.532;2022-10-30T05:27:57;8.70;99.90
44037;DHT22;62488;-37.670;-63.532;2022-10-30T05:30:29;8.70;99.90
44037;DHT22;62488;-37.670;-63.532;2022-10-30T05:33:03;8.70;99.90
44037;DHT22;62488;-37.670;-63.532;2022-10-30T05:35:31;8.60;99.90
44037;DHT22;62488;-37.670;-63.532;2022-10-30T05:38:02;8.60;99.90
44037;DHT22;62488;-37.670;-63.532;2022-10-30T05:40:29;8.60;99.90
44037;DHT22;62488;-37.670;-63.532;2022-10-30T05:42:56;8.50;99.90
44037;DHT22;62488;-37.670;-63.532;2022-10-30T05:45:25;8.50;99.90
44037;DHT22;62488;-37.670;-63.532;2022-10-30T05:47:56;8.40;99.90
44037;DHT22;62488;-37.670;-63.532;2022-10-30T05:50:24;8.40;99.90
44037;DHT22;62488;-37.670;-63.532;2022-10-30T05:52:57;8.40;99.90
44037;DHT22;62488;-37.670;-63.532;2022-10-30T05:55:24;8.30;99.90
44037;DHT22;62488;-37.670;-63.532;2022-10-30T05:58:03;8.30;99.90
44037;DHT22;62488;-37.670;-63.532;2022-10-30T06:00:32;8.40;99.90
44037;DHT22;62488;-37.670;-63.532;2022-10-30T06:03:04;8.30;99.90
44037;DHT22;62488;-37.670;-63.532;2022-10-30T06:05:34;8.30;99.90
44037;DHT22;62488;-37.670;-63.532;2022-10-30T06:08:04;8.30;99.90
44037;DHT22;62488;-37.670;-63.532;2022-10-30T06:10:31;8.30;99.90
44037;DHT22;62488;-37.670;-63.532;2022-10-30T06:13:01;8.20;99.90
44037;DHT22;62488;-37.670;-63.532;2022-10-30T06:15:29;8.10;99.90
44037;DHT22;62488;-37.670;-63.532;2022-10-30T06:17:56;8.20;99.90
44037;DHT22;62488;-37.670;-63.532;2022-10-30T06:20:25;8.10;99.90
44037;DHT22;62488;-37.670;-63.532;2022-10-30T06:23:13;8.10;99.90
44037;DHT22;62488;-37.670;-63.532;2022-10-30T06:25:40;8.00;99.90
44037;DHT22;62488;-37.670;-63.532;2022-10-30T06:28:09;8.00;99.90
44037;DHT22;62488;-37.670;-63.532;2022-10-30T06:30:36;8.00;99.90
44037;DHT22;62488;-37.670;-63.532;2022-10-30T06:33:04;8.00;99.90
44037;DHT22;62488;-37.670;-63.532;2022-10-30T06:35:32;8.00;99.90
44037;DHT22;62488;-37.670;-63.532;2022-10-30T06:37:59;7.90;99.90
44037;DHT22;62488;-37.670;-63.532;2022-10-30T06:40:27;7.90;99.90
44037;DHT22;62488;-37.670;-63.532;2022-10-30T06:42:55;7.80;99.90
44037;DHT22;62488;-37.670;-63.532;2022-10-30T06:45:23;7.80;99.90
44037;DHT22;62488;-37.670;-63.532;2022-10-30T06:47:50;7.80;99.90
44037;DHT22;62488;-37.670;-63.532;2022-10-30T06:50:19;7.70;99.90
44037;DHT22;62488;-37.670;-63.532;2022-10-30T06:52:46;7.70;99.90
44037;DHT22;62488;-37.670;-63.532;2022-10-30T06:55:14;7.70;99.90
44037;DHT22;62488;-37.670;-63.532;2022-10-30T06:57:41;7.70;99.90
44037;DHT22;62488;-37.670;-63.532;2022-10-30T07:00:08;7.60;99.90
44037;DHT22;62488;-37.670;-63.532;2022-10-30T07:02:37;7.70;99.90
44037;DHT22;62488;-37.670;-63.532;2022-10-30T07:05:04;7.60;99.90
44037;DHT22;62488;-37.670;-63.532;2022-10-30T07:07:31;7.60;99.90
44037;DHT22;62488;-37.670;-63.532;2022-10-30T07:09:58;7.50;99.90
44037;DHT22;62488;-37.670;-63.532;2022-10-30T07:12:25;7.40;99.90
44037;DHT22;62488;-37.670;-63.532;2022-10-30T07:14:52;7.40;99.90
44037;DHT22;62488;-37.670;-63.532;2022-10-30T07:17:19;7.40;99.90
44037;DHT22;62488;-37.670;-63.532;2022-10-30T07:19:46;7.50;99.90
44037;DHT22;62488;-37.670;-63.532;2022-10-30T07:22:13;7.40;99.90
44037;DHT22;62488;-37.670;-63.532;2022-10-30T07:24:40;7.50;99.90
44037;DHT22;62488;-37.670;-63.532;2022-10-30T07:27:07;7.50;99.90
44037;DHT22;62488;-37.670;-63.532;2022-10-30T07:29:34;7.60;99.90
44037;DHT22;62488;-37.670;-63.532;2022-10-30T07:32:01;7.50;99.90
44037;DHT22;62488;-37.670;-63.532;2022-10-30T07:34:28;7.60;99.90
44037;DHT22;62488;-37.670;-63.532;2022-10-30T07:36:55;7.60;99.90
44037;DHT22;62488;-37.670;-63.532;2022-10-30T07:39:22;7.60;99.90
44037;DHT22;62488;-37.670;-63.532;2022-10-30T07:41:49;7.50;99.90
44037;DHT22;62488;-37.670;-63.532;2022-10-30T07:44:16;7.50;99.90
44037;DHT22;62488;-37.670;-63.532;2022-10-30T07:46:43;7.40;99.90
44037;DHT22;62488;-37.670;-63.532;2022-10-30T07:49:10;7.40;99.90
44037;DHT22;62488;-37.670;-63.532;2022-10-30T07:51:37;7.40;99.90
44037;DHT22;62488;-37.670;-63.532;2022-10-30T07:54:04;7.40;99.90
44037;DHT22;62488;-37.670;-63.532;2022-10-30T07:56:31;7.30;99.90
44037;DHT22;62488;-37.670;-63.532;2022-10-30T07:58:58;7.30;99.90
44037;DHT22;62488;-37.670;-63.532;2022-10-30T08:01:25;7.30;99.90
44037;DHT22;62488;-37.670;-63.532;2022-10-30T08:03:54;7.30;99.90
44037;DHT22;62488;-37.670;-63.532;2022-10-30T08:06:21;7.20;99.90
44037;DHT22;62488;-37.670;-63.532;2022-10-30T08:08:48;7.20;99.90
44037;DHT22;62488;-37.670;-63.532;2022-10-30T08:11:18;7.20;99.90
44037;DHT22;62488;-37.670;-63.532;2022-10-30T08:13:45;7.20;99.90
44037;DHT22;62488;-37.670;-63.532;2022-10-30T08:16:12;7.20;99.90
44037;DHT22;62488;-37.670;-63.532;2022-10-30T08:18:39;7.20;99.90
44037;DHT22;62488;-37.670;-63.532;2022-10-30T08:21:08;7.10;99.90
44037;DHT22;62488;-37.670;-63.532;2022-10-30T08:23:35;7.10;99.90
44037;DHT22;62488;-37.670;-63.532;2022-10-30T08:26:02;7.10;99.90
44037;DHT22;62488;-37.670;-63.532;2022-10-30T08:28:31;7.10;99.90
44037;DHT22;62488;-37.670;-63.532;2022-10-30T08:30:59;7.10;99.90
44037;DHT22;62488;-37.670;-63.532;2022-10-30T08:33:26;7.00;99.90
44037;DHT22;62488;-37.670;-63.532;2022-10-30T08:35:55;7.00;99.90
44037;DHT22;62488;-37.670;-63.532;2022-10-30T08:38:24;6.90;99.90
44037;DHT22;62488;-37.670;-63.532;2022-10-30T08:40:54;7.00;99.90
44037;DHT22;62488;-37.670;-63.532;2022-10-30T08:43:21;7.00;99.90
44037;DHT22;62488;-37.670;-63.532;2022-10-30T08:45:50;6.90;99.90
44037;DHT22;62488;-37.670;-63.532;2022-10-30T08:48:17;7.00;99.90
44037;DHT22;62488;-37.670;-63.532;2022-10-30T08:50:44;6.90;99.90
44037;DHT22;62488;-37.670;-63.532;2022-10-30T08:53:13;6.90;99.90
44037;DHT22;62488;-37.670;-63.532;2022-10-30T08:55:40;6.80;99.90
44037;DHT22;62488;-37.670;-63.532;2022-10-30T08:58:12;6.80;99.90
44037;DHT22;62488;-37.670;-63.532;2022-10-30T09:00:39;6.80;99.90
44037;DHT22;62488;-37.670;-63.532;2022-10-30T09:03:06;6.70;99.90
44037;DHT22;62488;-37.670;-63.532;2022-10-30T09:05:35;6.70;99.90
44037;DHT22;62488;-37.670;-63.532;2022-10-30T09:08:02;6.60;99.90
44037;DHT22;62488;-37.670;-63.532;2022-10-30T09:10:29;6.60;99.90
44037;DHT22;62488;-37.670;-63.532;2022-10-30T09:12:58;6.50;99.90
44037;DHT22;62488;-37.670;-63.532;2022-10-30T09:15:26;6.40;99.90
44037;DHT22;62488;-37.670;-63.532;2022-10-30T09:18:02;6.40;99.90
44037;DHT22;62488;-37.670;-63.532;2022-10-30T09:20:30;6.40;99.90
44037;DHT22;62488;-37.670;-63.532;2022-10-30T09:22:57;6.30;99.90
44037;DHT22;62488;-37.670;-63.532;2022-10-30T09:25:25;6.30;99.90
44037;DHT22;62488;-37.670;-63.532;2022-10-30T09:27:52;6.30;99.90
44037;DHT22;62488;-37.670;-63.532;2022-10-30T09:30:19;6.30;99.90
44037;DHT22;62488;-37.670;-63.532;2022-10-30T09:32:57;6.40;99.90
44037;DHT22;62488;-37.670;-63.532;2022-10-30T09:35:25;6.40;99.90
44037;DHT22;62488;-37.670;-63.532;2022-10-30T09:37:52;6.40;99.90
44037;DHT22;62488;-37.670;-63.532;2022-10-30T09:46:15;6.50;99.90
44037;DHT22;62488;-37.670;-63.532;2022-10-30T09:48:58;6.60;99.90
44037;DHT22;62488;-37.670;-63.532;2022-10-30T09:51:53;6.70;99.90
44037;DHT22;62488;-37.670;-63.532;2022-10-30T09:57:30;6.90;99.90
44037;DHT22;62488;-37.670;-63.532;2022-10-30T10:00:18;6.90;99.90
44037;DHT22;62488;-37.670;-63.532;2022-10-30T10:05:28;7.10;99.90
44037;DHT22;62488;-37.670;-63.532;2022-10-30T10:08:03;7.20;99.90
44037;DHT22;62488;-37.670;-63.532;2022-10-30T10:10:44;7.20;99.90
44037;DHT22;62488;-37.670;-63.532;2022-10-30T10:18:36;7.60;99.90
44037;DHT22;62488;-37.670;-63.532;2022-10-30T10:21:13;7.70;99.90
44037;DHT22;62488;-37.670;-63.532;2022-10-30T10:23:50;7.90;99.90
44037;DHT22;62488;-37.670;-63.532;2022-10-30T10:26:28;7.90;99.90
44037;DHT22;62488;-37.670;-63.532;2022-10-30T10:35:03;8.30;99.90
44037;DHT22;62488;-37.670;-63.532;2022-10-30T10:45:11;8.70;99.90
44037;DHT22;62488;-37.670;-63.532;2022-10-30T10:50:55;8.90;99.90
44037;DHT22;62488;-37.670;-63.532;2022-10-30T10:53:32;9.00;99.90
44037;DHT22;62488;-37.670;-63.532;2022-10-30T10:56:01;9.10;99.90
44037;DHT22;62488;-37.670;-63.532;2022-10-30T10:58:40;9.30;99.90
44037;DHT22;62488;-37.670;-63.532;2022-10-30T11:01:43;9.40;99.90
44037;DHT22;62488;-37.670;-63.532;2022-10-30T11:04:26;9.50;99.90
44037;DHT22;62488;-37.670;-63.532;2022-10-30T11:06:57;9.70;99.90
44037;DHT22;62488;-37.670;-63.532;2022-10-30T11:09:25;9.80;99.90
44037;DHT22;62488;-37.670;-63.532;2022-10-30T11:11:54;9.90;99.90
44037;DHT22;62488;-37.670;-63.532;2022-10-30T11:14:27;10.00;99.90
44037;DHT22;62488;-37.670;-63.532;2022-10-30T11:17:04;10.20;99.90
44037;DHT22;62488;-37.670;-63.532;2022-10-30T11:19:36;10.30;99.90
44037;DHT22;62488;-37.670;-63.532;2022-10-30T11:22:41;10.40;99.90
44037;DHT22;62488;-37.670;-63.532;2022-10-30T11:25:22;10.40;99.90
44037;DHT22;62488;-37.670;-63.532;2022-10-30T11:27:58;10.50;99.90
44037;DHT22;62488;-37.670;-63.532;2022-10-30T11:30:28;10.60;99.90
44037;DHT22;62488;-37.670;-63.532;2022-10-30T11:32:56;10.70;99.90
44037;DHT22;62488;-37.670;-63.532;2022-10-30T11:35:24;10.70;99.90
44037;DHT22;62488;-37.670;-63.532;2022-10-30T11:38:11;10.90;99.90
44037;DHT22;62488;-37.670;-63.532;2022-10-30T11:40:46;10.90;99.90
44037;DHT22;62488;-37.670;-63.532;2022-10-30T11:43:19;11.00;99.90
44037;DHT22;62488;-37.670;-63.532;2022-10-30T11:45:48;11.20;99.90
44037;DHT22;62488;-37.670;-63.532;2022-10-30T11:48:32;11.40;99.90
44037;DHT22;62488;-37.670;-63.532;2022-10-30T11:51:00;11.40;99.90
44037;DHT22;62488;-37.670;-63.532;2022-10-30T11:53:33;11.60;99.90
44037;DHT22;62488;-37.670;-63.532;2022-10-30T11:56:20;11.70;99.90
44037;DHT22;62488;-37.670;-63.532;2022-10-30T11:58:56;11.70;99.90
44037;DHT22;62488;-37.670;-63.532;2022-10-30T12:01:29;11.80;99.90
44037;DHT22;62488;-37.670;-63.532;2022-10-30T12:04:22;11.80;99.90
44037;DHT22;62488;-37.670;-63.532;2022-10-30T12:09:48;12.00;99.80
44037;DHT22;62488;-37.670;-63.532;2022-10-30T12:12:37;12.20;99.10
44037;DHT22;62488;-37.670;-63.532;2022-10-30T12:17:38;12.30;98.80
44037;DHT22;62488;-37.670;-63.532;2022-10-30T12:20:07;12.40;99.40
44037;DHT22;62488;-37.670;-63.532;2022-10-30T12:22:39;12.40;98.50
44037;DHT22;62488;-37.670;-63.532;2022-10-30T12:25:30;12.60;98.80
44037;DHT22;62488;-37.670;-63.532;2022-10-30T12:28:27;12.70;98.60
44037;DHT22;62488;-37.670;-63.532;2022-10-30T12:31:09;12.90;98.70
44037;DHT22;62488;-37.670;-63.532;2022-10-30T12:33:57;12.90;97.90
44037;DHT22;62488;-37.670;-63.532;2022-10-30T12:36:32;12.90;97.20
44037;DHT22;62488;-37.670;-63.532;2022-10-30T12:39:08;12.80;98.00
44037;DHT22;62488;-37.670;-63.532;2022-10-30T12:41:56;13.00;98.50
44037;DHT22;62488;-37.670;-63.532;2022-10-30T12:44:31;13.20;97.50
44037;DHT22;62488;-37.670;-63.532;2022-10-30T12:50:16;13.30;95.70
44037;DHT22;62488;-37.670;-63.532;2022-10-30T12:55:50;13.70;96.10
44037;DHT22;62488;-37.670;-63.532;2022-10-30T12:58:41;13.90;96.30
44037;DHT22;62488;-37.670;-63.532;2022-10-30T13:04:21;14.20;96.00
44037;DHT22;62488;-37.670;-63.532;2022-10-30T13:10:01;14.10;94.90
44037;DHT22;62488;-37.670;-63.532;2022-10-30T13:12:39;14.20;94.70
44037;DHT22;62488;-37.670;-63.532;2022-10-30T13:17:41;14.20;93.50
44037;DHT22;62488;-37.670;-63.532;2022-10-30T13:20:13;14.40;93.50
44037;DHT22;62488;-37.670;-63.532;2022-10-30T13:23:09;14.50;93.70
44037;DHT22;62488;-37.670;-63.532;2022-10-30T13:26:07;14.50;93.10
44037;DHT22;62488;-37.670;-63.532;2022-10-30T13:29:23;15.00;93.40
44037;DHT22;62488;-37.670;-63.532;2022-10-30T13:31:45;15.00;92.70
44037;DHT22;62488;-37.670;-63.532;2022-10-30T13:37:26;15.30;91.10
44037;DHT22;62488;-37.670;-63.532;2022-10-30T13:51:25;16.00;89.10
44037;DHT22;62488;-37.670;-63.532;2022-10-30T13:56:33;16.20;88.10
44037;DHT22;62488;-37.670;-63.532;2022-10-30T13:59:19;16.10;86.40
44037;DHT22;62488;-37.670;-63.532;2022-10-30T14:09:55;16.10;84.60
44037;DHT22;62488;-37.670;-63.532;2022-10-30T14:13:25;16.10;84.40
44037;DHT22;62488;-37.670;-63.532;2022-10-30T14:15:45;16.30;82.50
44037;DHT22;62488;-37.670;-63.532;2022-10-30T14:20:50;16.60;84.40
44037;DHT22;62488;-37.670;-63.532;2022-10-30T14:23:32;16.60;82.40
44037;DHT22;62488;-37.670;-63.532;2022-10-30T14:26:12;16.70;84.40
44037;DHT22;62488;-37.670;-63.532;2022-10-30T14:28:42;16.70;83.10
44037;DHT22;62488;-37.670;-63.532;2022-10-30T14:31:14;16.50;81.80
44037;DHT22;62488;-37.670;-63.532;2022-10-30T14:33:52;16.80;81.80
44037;DHT22;62488;-37.670;-63.532;2022-10-30T14:36:25;16.80;81.40
44037;DHT22;62488;-37.670;-63.532;2022-10-30T14:41:56;17.10;80.00
44037;DHT22;62488;-37.670;-63.532;2022-10-30T14:44:39;17.10;78.70
44037;DHT22;62488;-37.670;-63.532;2022-10-30T14:47:31;17.30;81.30
44037;DHT22;62488;-37.670;-63.532;2022-10-30T14:58:26;18.10;77.00
44037;DHT22;62488;-37.670;-63.532;2022-10-30T15:07:13;18.20;74.90
44037;DHT22;62488;-37.670;-63.532;2022-10-30T15:09:50;18.50;75.40
44037;DHT22;62488;-37.670;-63.532;2022-10-30T15:12:22;18.40;71.50
44037;DHT22;62488;-37.670;-63.532;2022-10-30T15:15:03;18.70;75.20
44037;DHT22;62488;-37.670;-63.532;2022-10-30T15:17:38;18.90;73.30
44037;DHT22;62488;-37.670;-63.532;2022-10-30T15:20:29;17.70;72.10
44037;DHT22;62488;-37.670;-63.532;2022-10-30T15:23:03;17.80;71.50
44037;DHT22;62488;-37.670;-63.532;2022-10-30T15:25:52;18.30;70.30
44037;DHT22;62488;-37.670;-63.532;2022-10-30T15:28:32;18.70;72.80
44037;DHT22;62488;-37.670;-63.532;2022-10-30T15:31:03;18.10;68.70
44037;DHT22;62488;-37.670;-63.532;2022-10-30T15:33:35;18.20;76.20
44037;DHT22;62488;-37.670;-63.532;2022-10-30T15:36:04;17.90;67.30
44037;DHT22;62488;-37.670;-63.532;2022-10-30T15:38:31;16.60;68.90
44037;DHT22;62488;-37.670;-63.532;2022-10-30T15:41:02;17.30;73.90
44037;DHT22;62488;-37.670;-63.532;2022-10-30T15:43:36;18.30;68.40
44037;DHT22;62488;-37.670;-63.532;2022-10-30T15:46:11;17.40;68.00
44037;DHT22;62488;-37.670;-63.532;2022-10-30T15:48:44;18.10;71.20
44037;DHT22;62488;-37.670;-63.532;2022-10-30T15:51:21;18.50;65.40
44037;DHT22;62488;-37.670;-63.532;2022-10-30T15:53:55;18.20;69.30
44037;DHT22;62488;-37.670;-63.532;2022-10-30T15:56:40;17.60;68.40
44037;DHT22;62488;-37.670;-63.532;2022-10-30T15:59:25;17.70;67.30
44037;DHT22;62488;-37.670;-63.532;2022-10-30T16:01:54;17.40;63.30
44037;DHT22;62488;-37.670;-63.532;2022-10-30T16:04:29;16.70;66.50
44037;DHT22;62488;-37.670;-63.532;2022-10-30T16:07:07;16.60;66.00
44037;DHT22;62488;-37.670;-63.532;2022-10-30T16:09:55;15.90;65.20
44037;DHT22;62488;-37.670;-63.532;2022-10-30T16:12:28;16.60;66.80
44037;DHT22;62488;-37.670;-63.532;2022-10-30T16:15:07;18.40;67.50
44037;DHT22;62488;-37.670;-63.532;2022-10-30T16:17:35;18.10;61.60
44037;DHT22;62488;-37.670;-63.532;2022-10-30T16:20:04;16.90;63.50
44037;DHT22;62488;-37.670;-63.532;2022-10-30T16:22:35;16.40;66.10
44037;DHT22;62488;-37.670;-63.532;2022-10-30T16:25:07;16.80;67.30
44037;DHT22;62488;-37.670;-63.532;2022-10-30T16:27:43;16.30;68.80
44037;DHT22;62488;-37.670;-63.532;2022-10-30T16:30:14;14.80;77.50
44037;DHT22;62488;-37.670;-63.532;2022-10-30T16:32:47;13.60;86.00
44037;DHT22;62488;-37.670;-63.532;2022-10-30T16:35:19;13.50;87.60
44037;DHT22;62488;-37.670;-63.532;2022-10-30T16:37:47;15.10;90.60
44037;DHT22;62488;-37.670;-63.532;2022-10-30T16:43:29;16.20;62.80
44037;DHT22;62488;-37.670;-63.532;2022-10-30T16:49:06;14.80;62.90
44037;DHT22;62488;-37.670;-63.532;2022-10-30T16:51:34;14.90;68.60
44037;DHT22;62488;-37.670;-63.532;2022-10-30T16:54:03;16.20;64.70
44037;DHT22;62488;-37.670;-63.532;2022-10-30T16:56:31;17.50;61.50
44037;DHT22;62488;-37.670;-63.532;2022-10-30T16:59:13;16.90;63.80
44037;DHT22;62488;-37.670;-63.532;2022-10-30T17:01:40;15.80;66.50
44037;DHT22;62488;-37.670;-63.532;2022-10-30T17:04:13;15.20;69.00
44037;DHT22;62488;-37.670;-63.532;2022-10-30T17:06:43;14.50;71.90
44037;DHT22;62488;-37.670;-63.532;2022-10-30T17:09:39;14.50;74.30
44037;DHT22;62488;-37.670;-63.532;2022-10-30T17:12:11;14.60;70.50
44037;DHT22;62488;-37.670;-63.532;2022-10-30T17:17:40;16.30;69.40
44037;DHT22;62488;-37.670;-63.532;2022-10-30T17:20:25;15.90;80.10
44037;DHT22;62488;-37.670;-63.532;2022-10-30T17:23:06;14.30;83.80
44037;DHT22;62488;-37.670;-63.532;2022-10-30T17:25:38;13.80;84.10